Time;durP1;ratioP1;P1;durP2;ratioP2;P2;SDS_P1;SDS_P2;PMS_P1;PMS_P2;Temp;Humidity;BMP_temperature;BMP_pressure;BME280_temperature;BME280_humidity;BME280_pressure;Samples;Min_cycle;Max_cycle;Signal;HPM_P1;HPM_P2
2023/01/28 08:00:08;;;;;;;19.40;8.63;;;;;;;5.89;65.95;94378.13;5387372;22;20088;-80
2023/01/28 08:02:33;;;;;;;21.52;9.02;;;;;;;5.85;65.07;94377.03;4994979;28;20037;-80
2023/01/28 08:05:00;;;;;;;19.77;8.50;;;;;;;6.08;62.71;94376.09;4994709;28;20038;-78
2023/01/28 08:07:26;;;;;;;19.48;8.18;;;;;;;6.21;62.78;94374.97;4996902;28;20065;-78
2023/01/28 08:09:52;;;;;;;21.27;9.30;;;;;;;5.79;63.75;94388.38;5001380;28;20113;-80
2023/01/28 08:12:17;;;;;;;26.17;8.73;;;;;;;6.14;61.82;94387.38;4999081;28;20117;-80
2023/01/28 08:14:42;;;;;;;18.58;8.73;;;;;;;6.07;61.31;94395.34;4983296;28;20088;-78
2023/01/28 08:17:08;;;;;;;16.98;8.07;;;;;;;6.58;60.46;94393.69;4983321;28;20030;-80
2023/01/28 08:19:33;;;;;;;19.48;8.75;;;;;;;7.02;59.93;94391.09;4983486;28;20033;-78
2023/01/28 08:21:59;;;;;;;17.40;8.57;;;;;;;7.28;59.01;94395.78;4999007;28;20033;-78
2023/01/28 08:24:24;;;;;;;20.85;9.32;;;;;;;6.75;61.54;94397.03;4999678;28;20485;-80
2023/01/28 08:26:50;;;;;;;22.98;10.57;;;;;;;7.19;60.69;94400.63;4982692;28;20030;-78
2023/01/28 08:29:15;;;;;;;27.27;11.57;;;;;;;7.75;59.99;94408.22;4999377;28;20109;-81
2023/01/28 08:31:40;;;;;;;41.97;22.95;;;;;;;8.12;58.68;94408.50;4999384;28;20030;-78
2023/01/28 08:34:06;;;;;;;29.80;15.50;;;;;;;7.96;58.09;94407.56;4983191;28;20030;-81
2023/01/28 08:36:31;;;;;;;25.55;9.65;;;;;;;7.92;58.81;94409.91;4998765;28;20056;-81
2023/01/28 08:38:57;;;;;;;24.10;11.65;;;;;;;8.00;57.59;94414.66;4999341;28;20461;-78
2023/01/28 08:41:22;;;;;;;27.63;10.68;;;;;;;7.54;59.04;94422.09;5000557;28;20026;-78
2023/01/28 08:43:48;;;;;;;27.08;12.43;;;;;;;7.83;57.69;94412.19;4999245;28;20037;-78
2023/01/28 08:46:14;;;;;;;24.27;10.75;;;;;;;7.94;58.35;94413.06;4982820;28;20030;-80
2023/01/28 08:48:39;;;;;;;24.15;10.50;;;;;;;8.01;56.87;94412.84;4998973;28;20033;-78
2023/01/28 08:51:05;;;;;;;20.52;10.18;;;;;;;7.73;58.22;94425.16;4998877;28;20034;-80
2023/01/28 08:53:31;;;;;;;23.90;11.68;;;;;;;8.17;57.17;94416.34;4982812;28;20129;-81
2023/01/28 08:55:56;;;;;;;20.50;9.50;;;;;;;8.12;56.04;94426.75;4998407;28;20031;-78
2023/01/28 08:58:22;;;;;;;22.23;10.48;;;;;;;8.46;56.41;94431.69;4982910;28;20034;-80
2023/01/28 09:00:48;;;;;;;21.90;10.35;;;;;;;8.70;55.45;94428.72;4982600;28;20026;-79
2023/01/28 09:03:14;;;;;;;23.77;10.65;;;;;;;8.70;54.61;94426.09;4982718;28;20032;-80
2023/01/28 09:05:39;;;;;;;21.50;9.00;;;;;;;8.80;52.99;94425.38;4998641;28;20030;-78
2023/01/28 09:08:08;;;;;;;19.63;8.95;;;;;;;8.79;53.52;94431.63;4998348;28;20037;-78
2023/01/28 09:10:36;;;;;;;24.98;12.00;;;;;;;8.70;54.03;94432.13;4999912;28;20454;-78
2023/01/28 09:13:13;;;;;;;21.30;9.38;;;;;;;8.41;52.44;94435.06;4998806;28;20026;-78
2023/01/28 09:15:38;;;;;;;19.08;9.35;;;;;;;7.94;54.83;94439.16;4982772;28;20026;-81
2023/01/28 09:18:05;;;;;;;31.23;15.55;;;;;;;8.48;54.32;94451.28;4997845;28;20033;-81
2023/01/28 09:20:31;;;;;;;28.30;12.40;;;;;;;8.57;53.62;94449.03;4982399;28;20069;-80
2023/01/28 09:22:58;;;;;;;31.98;12.43;;;;;;;8.43;54.49;94450.47;4983857;28;20031;-80
2023/01/28 09:25:23;;;;;;;60.28;29.05;;;;;;;8.69;54.13;94453.28;4984549;28;20026;-81
2023/01/28 09:27:48;;;;;;;29.35;13.18;;;;;;;8.68;52.72;94446.47;4981799;28;20436;-78
2023/01/28 09:30:14;;;;;;;26.13;13.00;;;;;;;8.77;52.88;94455.41;4998277;28;20027;-78
2023/01/28 09:32:40;;;;;;;20.90;10.02;;;;;;;6.61;54.21;94451.28;4999625;28;20030;-80
2023/01/28 09:35:05;;;;;;;22.60;9.70;;;;;;;7.52;53.21;94458.06;4980385;28;20485;-78
2023/01/28 09:37:31;;;;;;;25.33;9.65;;;;;;;6.95;54.70;94458.19;4997825;28;20030;-78
2023/01/28 09:39:56;;;;;;;23.70;10.63;;;;;;;6.68;55.70;94455.50;4998197;28;20466;-80
2023/01/28 09:42:34;;;;;;;22.88;9.60;;;;;;;6.73;55.55;94458.97;4999022;28;20030;-81
2023/01/28 09:45:28;;;;;;;24.67;9.98;;;;;;;6.37;56.65;94474.06;4997973;28;20030;-78
2023/01/28 09:47:54;;;;;;;;;;;;;;;7.20;54.34;94459.53;4998195;28;20033;-78
2023/01/28 09:50:39;;;;;;;22.08;10.18;;;;;;;7.17;54.70;94465.25;4998006;28;19910;-80
2023/01/28 09:53:14;;;;;;;23.67;10.60;;;;;;;7.78;52.94;94464.31;4997840;28;20034;-80
2023/01/28 09:55:43;;;;;;;21.85;9.88;;;;;;;7.83;53.20;94466.19;4997846;28;20137;-80
2023/01/28 09:58:14;;;;;;;28.50;10.52;;;;;;;7.59;53.97;94462.03;4997601;28;20097;-78
2023/01/28 10:00:46;;;;;;;22.15;9.55;;;;;;;7.69;52.81;94461.34;4981981;28;20030;-78
2023/01/28 10:03:36;;;;;;;23.45;9.45;;;;;;;6.93;54.10;94465.47;4997803;28;20034;-78
2023/01/28 10:06:18;;;;;;;24.00;9.98;;;;;;;8.29;52.47;94463.94;4981382;28;20148;-78
2023/01/28 10:09:04;;;;;;;20.35;9.35;;;;;;;9.22;50.06;94470.78;4998681;28;20034;-80
2023/01/28 10:11:48;;;;;;;22.80;9.77;;;;;;;8.41;51.09;94469.00;4998539;28;20041;-80
2023/01/28 10:14:35;;;;;;;23.05;9.80;;;;;;;8.10;50.70;94471.38;4997475;28;20030;-80
2023/01/28 10:17:19;;;;;;;20.00;9.15;;;;;;;9.00;48.99;94471.72;4997136;28;20037;-78
2023/01/28 10:19:52;;;;;;;22.77;9.35;;;;;;;9.64;49.06;94469.88;4981890;28;20030;-78
2023/01/28 10:22:22;;;;;;;18.95;8.75;;;;;;;9.14;48.33;94467.59;4997505;28;20057;-78
2023/01/28 10:25:05;;;;;;;19.63;9.45;;;;;;;8.98;49.77;94469.38;4997508;28;20076;-78
2023/01/28 10:27:31;;;;;;;21.30;10.27;;;;;;;8.34;50.82;94463.19;4981147;28;20038;-80
2023/01/28 10:29:59;;;;;;;24.25;9.75;;;;;;;9.18;49.55;94462.66;4980225;28;20276;-80
2023/01/28 10:32:35;;;;;;;20.27;9.50;;;;;;;10.35;47.41;94459.72;4996976;28;20125;-78
2023/01/28 10:35:02;;;;;;;17.30;8.88;;;;;;;10.41;47.69;94457.91;4981514;28;20034;-80
2023/01/28 10:37:32;;;;;;;21.52;9.00;;;;;;;11.05;46.09;94454.88;4996358;28;20030;-79
2023/01/28 10:39:59;;;;;;;23.48;9.65;;;;;;;11.07;46.77;94455.41;4977704;28;20041;-82
2023/01/28 10:42:33;;;;;;;22.95;10.07;;;;;;;10.38;46.49;94447.94;4993462;28;20146;-82
2023/01/28 10:45:07;;;;;;;23.80;9.88;;;;;;;10.82;47.32;94449.97;4971546;28;20034;-80
2023/01/28 10:47:54;;;;;;;20.15;9.45;;;;;;;11.59;44.87;94459.38;4996502;28;20068;-82
2023/01/28 10:50:25;;;;;;;20.38;9.70;;;;;;;11.78;45.23;94455.34;4996499;28;20089;-82
2023/01/28 10:53:00;;;;;;;21.40;9.52;;;;;;;10.59;45.50;94452.09;4996748;28;20335;-82
2023/01/28 10:55:47;;;;;;;23.48;10.63;;;;;;;10.56;45.93;94457.88;4996614;28;20454;-81
2023/01/28 10:58:33;;;;;;;23.27;9.05;;;;;;;10.99;44.66;94462.78;4980506;28;20454;-83
2023/01/28 11:01:00;;;;;;;19.90;8.77;;;;;;;10.49;45.12;94454.75;4981240;28;20066;-83
2023/01/28 11:03:26;;;;;;;18.88;8.90;;;;;;;9.53;46.94;94455.97;4961055;28;20035;-83
2023/01/28 11:05:55;;;;;;;20.85;9.75;;;;;;;8.68;49.97;94457.72;4996009;28;20030;-83
2023/01/28 11:08:23;;;;;;;25.67;9.35;;;;;;;8.77;49.58;94460.66;4996425;28;20428;-83
2023/01/28 11:10:49;;;;;;;20.92;9.07;;;;;;;8.28;49.80;94457.16;4996170;28;20042;-82
2023/01/28 11:13:19;;;;;;;23.05;9.10;;;;;;;8.74;49.16;94458.50;4996308;28;20031;-82
2023/01/28 11:15:53;;;;;;;20.15;9.55;;;;;;;8.47;49.18;94460.16;4995937;28;20069;-80
2023/01/28 11:18:24;;;;;;;21.88;9.15;;;;;;;8.63;49.75;94455.06;4996350;28;20033;-82
2023/01/28 11:21:20;;;;;;;20.85;9.55;;;;;;;7.84;50.19;94457.31;4996290;28;20113;-82
2023/01/28 11:24:01;;;;;;;21.73;9.52;;;;;;;7.81;50.99;94455.97;4971242;28;20129;-83
2023/01/28 11:26:37;;;;;;;22.27;9.55;;;;;;;7.82;51.67;94456.78;4995693;28;20061;-83
2023/01/28 11:29:05;;;;;;;27.38;10.18;;;;;;;7.96;51.02;94454.53;4994500;28;20038;-81
2023/01/28 11:31:38;;;;;;;18.25;9.30;;;;;;;9.28;49.38;94449.63;4996726;28;20038;-82
2023/01/28 11:34:04;;;;;;;19.40;9.17;;;;;;;8.45;49.80;94443.16;4995244;28;20061;-80
2023/01/28 11:36:32;;;;;;;70.38;31.92;;;;;;;9.38;49.58;94440.22;4995557;28;20030;-82
2023/01/28 11:39:01;;;;;;;75.45;41.60;;;;;;;9.63;48.53;94447.38;4997183;28;20026;-82
2023/01/28 11:41:30;;;;;;;32.42;16.45;;;;;;;9.79;49.08;94434.31;4997161;28;20065;-81
2023/01/28 11:43:57;;;;;;;63.13;31.05;;;;;;;9.99;48.42;94444.00;4983837;28;20030;-81
2023/01/28 11:47:07;;;;;;;22.85;10.55;;;;;;;10.04;48.44;94444.81;4999607;28;20087;-81
2023/01/28 11:49:54;;;;;;;23.88;11.18;;;;;;;9.83;48.95;94436.16;4906460;29;20040;-81
2023/01/28 11:52:49;;;;;;;24.75;12.15;;;;;;;9.48;47.57;94432.41;4996118;28;20046;-81
2023/01/28 11:55:35;;;;;;;20.60;9.65;;;;;;;8.49;48.36;94431.97;5001123;28;20112;-79
2023/01/28 11:58:06;;;;;;;21.45;9.43;;;;;;;9.03;48.16;94424.16;4999629;28;20033;-82
2023/01/28 12:01:09;;;;;;;20.88;9.27;;;;;;;9.44;48.32;94426.91;4999846;28;20034;-81
2023/01/28 12:03:53;;;;;;;20.70;9.77;;;;;;;9.55;48.11;94427.75;4983538;28;20129;-81
2023/01/28 12:06:50;;;;;;;19.38;9.05;;;;;;;9.31;46.94;94425.56;5000520;28;20073;-81
2023/01/28 12:09:32;;;;;;;19.85;8.93;;;;;;;8.89;48.17;94421.25;5000843;28;20438;-81
2023/01/28 12:12:21;;;;;;;38.28;15.43;;;;;;;8.60;48.78;94417.16;5000796;28;20113;-81
2023/01/28 12:15:15;;;;;;;21.40;8.70;;;;;;;7.90;49.84;94410.16;4997301;28;20030;-81
2023/01/28 12:17:43;;;;;;;20.67;8.82;;;;;;;8.22;49.47;94408.56;4979755;28;20428;-81
2023/01/28 12:20:21;;;;;;;62.33;26.65;;;;;;;9.24;48.32;94413.78;4980181;28;20450;-81
2023/01/28 12:23:13;;;;;;;21.92;10.05;;;;;;;9.10;47.65;94406.44;4980368;28;20027;-81
2023/01/28 12:25:49;;;;;;;20.35;9.38;;;;;;;9.19;48.10;94410.13;4980625;28;20046;-81
2023/01/28 12:28:17;;;;;;;26.42;10.25;;;;;;;8.14;50.50;94411.63;4979808;28;20138;-81
2023/01/28 12:30:42;;;;;;;31.52;15.00;;;;;;;9.29;48.67;94416.41;4980727;28;20038;-82
2023/01/28 12:33:50;;;;;;;25.27;12.25;;;;;;;9.39;48.72;94418.25;4979829;28;20085;-81
2023/01/28 12:36:54;;;;;;;23.10;10.50;;;;;;;9.40;47.40;94412.78;4979348;28;20082;-81
2023/01/28 12:39:58;;;;;;;22.75;10.68;;;;;;;8.42;50.92;94413.16;4970226;28;20182;-82
2023/01/28 12:42:38;;;;;;;27.65;10.77;;;;;;;9.76;47.36;94410.25;4980693;28;20117;-82
2023/01/28 12:45:12;;;;;;;27.83;11.25;;;;;;;9.45;49.11;94415.41;4963766;28;20030;-81
2023/01/28 12:47:43;;;;;;;24.02;11.15;;;;;;;10.11;47.89;94409.72;4988712;28;20057;-82
2023/01/28 12:50:28;;;;;;;25.08;11.52;;;;;;;10.38;47.54;94406.03;4982922;28;20037;-81
2023/01/28 12:53:18;;;;;;;17.63;8.65;;;;;;;9.76;47.73;94409.44;4998430;28;20026;-82
2023/01/28 12:55:52;;;;;;;21.95;10.32;;;;;;;10.03;47.89;94411.03;4998591;28;20117;-82
2023/01/28 12:58:24;;;;;;;26.67;12.02;;;;;;;9.41;48.75;94413.59;4982830;28;20033;-82
2023/01/28 13:00:53;;;;;;;17.88;8.45;;;;;;;9.03;49.37;94411.09;4982793;28;20069;-82
2023/01/28 13:03:25;;;;;;;17.30;8.05;;;;;;;9.31;46.91;94414.31;4998625;28;20125;-82
2023/01/28 13:06:09;;;;;;;16.08;7.70;;;;;;;9.09;48.37;94410.09;4998231;28;20026;-82
2023/01/28 13:08:34;;;;;;;24.02;10.70;;;;;;;9.46;47.28;94409.13;4984296;28;20029;-82
2023/01/28 13:11:01;;;;;;;20.48;8.90;;;;;;;9.83;46.46;94420.44;4998485;28;20339;-82
2023/01/28 13:13:37;;;;;;;15.55;8.43;;;;;;;8.85;46.78;94413.13;4998376;28;20033;-82
2023/01/28 13:16:04;;;;;;;19.27;9.95;;;;;;;9.08;46.94;94413.75;4997800;28;20137;-82
2023/01/28 13:18:39;;;;;;;18.33;8.00;;;;;;;8.77;46.33;94408.41;4998371;28;20334;-82
2023/01/28 13:21:15;;;;;;;18.35;7.80;;;;;;;8.88;47.27;94412.59;4998602;28;20431;-83
2023/01/28 13:23:48;;;;;;;18.20;8.38;;;;;;;9.05;47.06;94414.25;4998608;28;20117;-83
2023/01/28 13:26:17;;;;;;;21.67;8.82;;;;;;;9.43;47.45;94416.72;4997890;28;20498;-83
2023/01/28 13:28:43;;;;;;;19.90;9.15;;;;;;;8.39;47.90;94423.28;4998388;28;20037;-82
2023/01/28 13:31:16;;;;;;;21.20;9.27;;;;;;;8.84;47.55;94418.63;4982095;28;20347;-83
2023/01/28 13:33:46;;;;;;;20.48;9.35;;;;;;;8.47;48.48;94417.63;4982403;28;20439;-83
2023/01/28 13:36:27;;;;;;;21.85;9.95;;;;;;;7.76;49.72;94429.88;4998011;28;20018;-82
2023/01/28 13:39:04;;;;;;;25.23;10.48;;;;;;;8.37;48.87;94428.75;4998940;28;20084;-83
2023/01/28 13:41:49;;;;;;;22.58;9.45;;;;;;;9.09;47.84;94432.81;4998033;28;20057;-82
2023/01/28 13:44:20;;;;;;;24.33;9.45;;;;;;;9.16;48.10;94434.16;4998100;28;20037;-83
2023/01/28 13:46:49;;;;;;;22.50;9.88;;;;;;;8.76;47.95;94428.50;4994486;28;20097;-83
2023/01/28 13:49:26;;;;;;;25.42;11.70;;;;;;;9.02;47.94;94425.19;4978368;28;20347;-83
2023/01/28 13:52:03;;;;;;;22.23;10.20;;;;;;;9.24;47.12;94432.09;4962868;28;20041;-83
2023/01/28 13:54:30;;;;;;;39.95;17.13;;;;;;;9.07;48.18;94435.69;4978342;28;20046;-83
2023/01/28 13:56:58;;;;;;;83.55;33.25;;;;;;;9.19;47.29;94435.47;4961837;28;20105;-82
2023/01/28 13:59:46;;;;;;;22.33;10.80;;;;;;;9.66;47.45;94432.97;4978337;28;20035;-84
2023/01/28 14:02:23;;;;;;;268.95;86.78;;;;;;;10.38;46.50;94430.38;4978847;28;20151;-89
2023/01/28 14:04:55;;;;;;;22.13;10.13;;;;;;;9.67;47.24;94434.53;4978518;28;20031;-88
2023/01/28 14:07:44;;;;;;;25.13;10.52;;;;;;;9.67;45.87;94427.50;4978790;28;20037;-84
2023/01/28 14:10:25;;;;;;;26.42;11.43;;;;;;;9.82;45.38;94442.41;4981184;28;20136;-87
2023/01/28 14:13:26;;;;;;;26.27;11.27;;;;;;;9.39;45.84;94437.38;4997553;28;20042;-89
2023/01/28 14:16:16;;;;;;;24.45;11.60;;;;;;;9.50;46.12;94443.41;4928225;28;20361;-84
2023/01/28 14:18:43;;;;;;;24.42;12.15;;;;;;;7.32;49.76;94441.19;4997424;28;20514;-84
2023/01/28 14:21:12;;;;;;;27.02;12.20;;;;;;;8.47;47.99;94434.06;4981189;28;20029;-84
2023/01/28 14:23:44;;;;;;;27.17;11.50;;;;;;;7.38;50.93;94429.78;4981104;28;20026;-83
2023/01/28 14:26:32;;;;;;;25.55;11.52;;;;;;;7.30;50.63;94435.41;4996916;28;20030;-83
2023/01/28 14:29:16;;;;;;;25.85;12.07;;;;;;;6.76;52.46;94437.66;4982225;28;20069;-83
2023/01/28 14:31:41;;;;;;;;;;;;;;;7.39;51.65;94444.38;4977999;28;20034;-83
2023/01/28 14:34:21;;;;;;;23.58;10.80;;;;;;;7.01;51.87;94441.63;4977586;28;19963;-84
2023/01/28 14:36:47;;;;;;;25.08;11.43;;;;;;;7.01;52.34;94439.00;4977382;28;20033;-84
2023/01/28 14:39:26;;;;;;;23.88;11.40;;;;;;;7.76;51.18;94440.28;4977703;28;20030;-84
2023/01/28 14:41:53;;;;;;;27.55;11.10;;;;;;;7.48;51.16;94440.31;4961543;28;20031;-84
2023/01/28 14:44:31;;;;;;;24.10;11.25;;;;;;;7.54;50.05;94442.97;4977330;28;20110;-84
2023/01/28 14:47:09;;;;;;;26.17;11.68;;;;;;;7.60;50.62;94452.38;4976935;28;20118;-84
2023/01/28 14:49:43;;;;;;;28.70;11.57;;;;;;;7.36;50.71;94447.47;4977373;28;20085;-84
2023/01/28 14:52:43;;;;;;;27.38;11.50;;;;;;;7.71;50.69;94448.84;4985694;28;20038;-83
2023/01/28 14:55:35;;;;;;;27.85;11.38;;;;;;;7.96;49.86;94455.34;4996924;28;20054;-83
2023/01/28 14:58:07;;;;;;;30.42;12.25;;;;;;;7.80;49.58;94451.03;4997290;28;20064;-83
2023/01/28 15:00:34;;;;;;;24.55;11.90;;;;;;;7.76;50.09;94464.56;4996509;28;20044;-83
2023/01/28 15:02:59;;;;;;;29.40;12.07;;;;;;;7.56;50.16;94459.94;4996509;28;20034;-83
2023/01/28 15:05:28;;;;;;;24.15;10.63;;;;;;;8.06;49.67;94472.91;4996450;28;20337;-84
2023/01/28 15:07:55;;;;;;;25.73;11.23;;;;;;;8.06;49.52;94470.28;4996012;28;20041;-84
2023/01/28 15:10:27;;;;;;;27.92;12.13;;;;;;;8.42;49.32;94472.41;4996353;28;20041;-84
2023/01/28 15:13:03;;;;;;;29.60;12.43;;;;;;;8.43;49.16;94476.56;4996643;28;20505;-84
2023/01/28 15:15:32;;;;;;;23.45;10.75;;;;;;;8.43;49.39;94471.34;4980018;28;20034;-83
2023/01/28 15:18:01;;;;;;;23.85;10.80;;;;;;;8.27;50.13;94467.88;4995891;28;20026;-84
2023/01/28 15:20:27;;;;;;;27.27;11.55;;;;;;;7.85;51.34;94474.53;4996256;28;20124;-83
2023/01/28 15:22:53;;;;;;;24.92;11.32;;;;;;;7.91;50.60;94476.19;4996227;28;20034;-83
2023/01/28 15:25:20;;;;;;;22.15;10.77;;;;;;;8.02;50.44;94472.59;4980268;28;20026;-83
2023/01/28 15:27:46;;;;;;;30.70;13.00;;;;;;;7.53;51.30;94470.06;4995663;28;20034;-83
2023/01/28 15:30:24;;;;;;;27.30;11.98;;;;;;;7.11;52.28;94477.41;4996207;28;20038;-83
2023/01/28 15:33:00;;;;;;;29.63;11.48;;;;;;;6.98;52.67;94486.38;4985451;28;20027;-82
2023/01/28 15:35:25;;;;;;;27.92;11.77;;;;;;;6.79;52.48;94480.66;4977753;28;20054;-83
2023/01/28 15:37:51;;;;;;;28.83;12.05;;;;;;;7.07;51.61;94486.75;4976254;28;20031;-83
2023/01/28 15:40:19;;;;;;;24.77;10.80;;;;;;;7.14;51.54;94484.75;4960769;28;20061;-83
2023/01/28 15:42:45;;;;;;;26.77;11.57;;;;;;;7.16;52.09;94487.13;4976596;28;20058;-83
2023/01/28 15:45:16;;;;;;;27.63;11.80;;;;;;;7.37;52.04;94490.75;4976467;28;20050;-83
2023/01/28 15:47:42;;;;;;;23.70;11.35;;;;;;;7.14;52.07;94497.78;4976171;28;20101;-83
2023/01/28 15:50:08;;;;;;;28.17;11.05;;;;;;;7.12;52.27;94493.84;4960342;28;20110;-82
2023/01/28 15:52:41;;;;;;;26.02;11.98;;;;;;;7.14;51.95;94497.78;4960436;28;20105;-82
2023/01/28 15:55:29;;;;;;;25.42;11.25;;;;;;;7.30;52.03;94500.56;4960314;28;20089;-82
2023/01/28 15:57:54;;;;;;;26.67;11.38;;;;;;;6.92;52.42;94502.97;4977309;28;20077;-82
2023/01/28 16:00:20;;;;;;;30.88;11.73;;;;;;;6.97;52.06;94507.47;4976322;28;20035;-82
2023/01/28 16:02:48;;;;;;;28.27;12.43;;;;;;;6.95;52.22;94519.94;4960544;28;20026;-82
2023/01/28 16:05:34;;;;;;;30.77;12.55;;;;;;;7.34;51.99;94512.09;4960520;28;20034;-82
2023/01/28 16:08:07;;;;;;;30.92;13.32;;;;;;;7.24;51.42;94519.78;4964517;28;20125;-83
2023/01/28 16:10:35;;;;;;;;;;;;;;;7.61;51.13;94519.19;4989739;28;20037;-82
2023/01/28 16:13:05;;;;;;;29.00;11.85;;;;;;;7.45;51.08;94523.41;4976046;28;19942;-82
2023/01/28 16:15:31;;;;;;;29.10;12.70;;;;;;;7.45;51.19;94524.19;4976485;28;20027;-82
2023/01/28 16:17:56;;;;;;;30.02;13.05;;;;;;;7.46;51.22;94540.63;4975487;28;20026;-82
2023/01/28 16:20:25;;;;;;;32.28;14.52;;;;;;;7.64;50.98;94536.94;4976300;28;20081;-82
2023/01/28 16:22:54;;;;;;;33.75;14.45;;;;;;;6.99;51.49;94547.88;4976265;28;20027;-82
2023/01/28 16:25:22;;;;;;;31.48;14.02;;;;;;;7.44;51.01;94538.25;4976246;28;20355;-82
2023/01/28 16:27:48;;;;;;;37.75;16.02;;;;;;;7.48;51.00;94536.78;4992600;28;20058;-82
2023/01/28 16:30:15;;;;;;;41.97;17.58;;;;;;;7.29;50.68;94533.66;4979801;28;20069;-82
2023/01/28 16:32:43;;;;;;;39.75;16.25;;;;;;;7.01;51.68;94545.00;4983095;28;20138;-82
2023/01/28 16:35:18;;;;;;;46.78;20.40;;;;;;;7.31;51.65;94539.44;4983281;28;20022;-82
2023/01/28 16:37:44;;;;;;;47.17;22.08;;;;;;;7.20;51.53;94543.72;4998812;28;20030;-82
2023/01/28 16:40:14;;;;;;;55.47;22.58;;;;;;;7.51;51.43;94538.09;4983120;28;20026;-82
2023/01/28 16:42:40;;;;;;;51.67;22.45;;;;;;;7.04;52.85;94542.72;4999153;28;20014;-82
2023/01/28 16:45:06;;;;;;;58.95;23.77;;;;;;;6.66;52.95;94544.25;4982941;28;20022;-82
2023/01/28 16:47:31;;;;;;;59.03;24.50;;;;;;;6.79;53.42;94548.38;4998584;28;20455;-82
2023/01/28 16:49:57;;;;;;;53.03;22.15;;;;;;;7.19;51.96;94549.16;4998988;28;20033;-82
2023/01/28 16:52:22;;;;;;;51.28;23.13;;;;;;;7.32;51.99;94561.06;4998830;28;20347;-82
2023/01/28 16:54:48;;;;;;;52.75;23.90;;;;;;;7.19;52.11;94565.59;4982864;28;20463;-82
2023/01/28 16:57:15;;;;;;;53.53;21.20;;;;;;;7.46;51.68;94558.88;4982244;28;20435;-82
2023/01/28 16:59:41;;;;;;;45.88;18.85;;;;;;;7.40;51.39;94563.25;4998660;28;20026;-83
2023/01/28 17:02:12;;;;;;;47.05;21.55;;;;;;;7.35;51.91;94565.81;4998779;28;20029;-83
2023/01/28 17:04:38;;;;;;;51.55;21.48;;;;;;;7.35;51.77;94568.41;4998359;28;20026;-83
2023/01/28 17:07:04;;;;;;;55.33;23.42;;;;;;;7.05;52.60;94569.59;4982185;28;20084;-82
2023/01/28 17:09:29;;;;;;;48.17;19.67;;;;;;;7.13;52.62;94581.41;4982117;28;20030;-82
2023/01/28 17:11:55;;;;;;;48.42;20.10;;;;;;;7.33;52.00;94586.13;4998499;28;20100;-82
2023/01/28 17:14:21;;;;;;;42.83;18.45;;;;;;;7.38;51.74;94575.75;4998596;28;20443;-82
2023/01/28 17:16:46;;;;;;;41.33;17.73;;;;;;;7.42;51.56;94578.66;4998007;28;20030;-83
2023/01/28 17:19:12;;;;;;;45.80;19.98;;;;;;;7.34;51.59;94585.09;4998412;28;20040;-82
2023/01/28 17:21:37;;;;;;;43.42;18.23;;;;;;;7.39;51.12;94581.72;4982283;28;20081;-82
2023/01/28 17:24:03;;;;;;;55.45;21.33;;;;;;;7.11;53.32;94579.03;4999555;28;20031;-82
2023/01/28 17:26:29;;;;;;;52.88;21.17;;;;;;;6.83;53.56;94591.13;4981890;28;20030;-82
2023/01/28 17:28:55;;;;;;;53.78;21.52;;;;;;;6.81;53.68;94597.59;4982258;28;20346;-82
2023/01/28 17:31:21;;;;;;;51.17;21.73;;;;;;;6.68;54.37;94601.31;4999347;28;20027;-82
2023/01/28 17:33:46;;;;;;;56.17;23.50;;;;;;;6.48;53.77;94600.75;4999313;28;20030;-82
2023/01/28 17:36:12;;;;;;;56.47;23.85;;;;;;;6.54;53.88;94601.63;4981590;28;20088;-82
2023/01/28 17:38:37;;;;;;;56.00;22.20;;;;;;;6.57;54.00;94608.97;4981933;28;20053;-82
2023/01/28 17:41:08;;;;;;;50.28;22.13;;;;;;;6.70;54.25;94604.47;4995833;28;20038;-82
2023/01/28 17:43:33;;;;;;;53.03;21.08;;;;;;;7.03;53.39;94593.25;4982028;28;20038;-82
2023/01/28 17:45:59;;;;;;;37.05;15.85;;;;;;;7.06;52.82;94589.41;4978587;28;20348;-82
2023/01/28 17:48:25;;;;;;;37.42;15.82;;;;;;;6.76;53.03;94595.72;4978613;28;20479;-82
2023/01/28 17:50:55;;;;;;;40.63;15.60;;;;;;;7.03;52.73;94602.88;4978385;28;20062;-82
2023/01/28 17:53:21;;;;;;;37.28;16.13;;;;;;;6.51;53.13;94600.28;4994604;28;20033;-82
2023/01/28 17:55:46;;;;;;;39.20;16.95;;;;;;;6.20;54.81;94598.97;4961526;28;20064;-82
2023/01/28 17:58:11;;;;;;;34.92;15.10;;;;;;;5.85;54.81;94594.66;4961839;28;20035;-82
2023/01/28 18:00:37;;;;;;;37.88;15.38;;;;;;;5.49;55.49;94592.16;4978224;28;20034;-82
2023/01/28 18:03:02;;;;;;;32.22;13.68;;;;;;;6.23;54.35;94606.31;4978363;28;20034;-82
2023/01/28 18:05:28;;;;;;;33.30;14.55;;;;;;;5.64;56.63;94599.47;4978023;28;20031;-82
2023/01/28 18:07:53;;;;;;;37.53;16.15;;;;;;;6.12;57.91;94607.16;4978689;28;20037;-82
2023/01/28 18:10:20;;;;;;;32.42;14.15;;;;;;;6.22;56.34;94613.31;4994374;28;20432;-82
2023/01/28 18:12:47;;;;;;;38.25;15.80;;;;;;;6.19;56.41;94610.41;4978989;28;20114;-82
2023/01/28 18:15:16;;;;;;;39.53;17.02;;;;;;;6.67;56.53;94623.19;4977904;28;20054;-82
2023/01/28 18:17:41;;;;;;;38.15;15.88;;;;;;;6.76;55.66;94622.53;4979386;28;20112;-82
2023/01/28 18:20:07;;;;;;;35.80;14.90;;;;;;;6.90;55.43;94623.03;4978962;28;20329;-82
2023/01/28 18:22:33;;;;;;;38.55;15.07;;;;;;;6.81;55.19;94621.84;4978007;28;20027;-82
2023/01/28 18:25:05;;;;;;;37.28;16.52;;;;;;;6.76;57.22;94625.16;4977627;28;20117;-84
2023/01/28 18:27:30;;;;;;;41.63;17.23;;;;;;;6.63;55.59;94626.25;4977418;28;20027;-84
2023/01/28 18:29:56;;;;;;;40.95;18.58;;;;;;;6.58;56.75;94636.56;4961607;28;20031;-83
2023/01/28 18:32:22;;;;;;;34.88;15.88;;;;;;;6.24;57.52;94628.72;4961418;28;20459;-83
2023/01/28 18:34:47;;;;;;;38.15;16.13;;;;;;;6.27;57.00;94635.25;4978425;28;20031;-83
2023/01/28 18:37:13;;;;;;;36.85;15.38;;;;;;;6.60;56.06;94642.34;4977083;28;20436;-83
2023/01/28 18:39:38;;;;;;;36.95;15.73;;;;;;;6.67;55.88;94639.59;4961631;28;20034;-85
2023/01/28 18:42:04;;;;;;;38.67;16.13;;;;;;;6.48;56.14;94642.41;4985687;28;20063;-84
2023/01/28 18:44:31;;;;;;;44.88;19.15;;;;;;;6.36;55.98;94644.25;4975666;28;20059;-84
2023/01/28 18:46:56;;;;;;;40.88;17.58;;;;;;;6.45;56.03;94652.47;4976351;28;20034;-84
2023/01/28 18:49:22;;;;;;;40.22;16.02;;;;;;;6.44;56.34;94651.69;4996769;28;20034;-84
2023/01/28 18:51:48;;;;;;;37.40;16.15;;;;;;;6.59;56.37;94653.00;4980213;28;20069;-84
2023/01/28 18:54:19;;;;;;;41.17;18.42;;;;;;;6.55;56.06;94655.25;4980356;28;20034;-84
2023/01/28 18:56:45;;;;;;;49.05;20.83;;;;;;;6.26;56.93;94654.50;4996553;28;20062;-84
2023/01/28 18:59:12;;;;;;;50.58;20.95;;;;;;;6.70;55.83;94659.16;4980452;28;20425;-84
2023/01/28 19:01:41;;;;;;;57.15;24.23;;;;;;;6.53;55.80;94667.72;4996497;28;20435;-83
2023/01/28 19:04:07;;;;;;;53.33;23.00;;;;;;;6.84;55.27;94665.63;4996446;28;20030;-84
2023/01/28 19:06:32;;;;;;;55.17;22.83;;;;;;;6.86;55.14;94673.22;4996324;28;20045;-84
2023/01/28 19:09:00;;;;;;;56.88;23.60;;;;;;;7.12;54.47;94681.44;4996264;28;20120;-84
2023/01/28 19:11:27;;;;;;;53.53;21.92;;;;;;;6.93;55.20;94676.47;4980410;28;20034;-83
2023/01/28 19:13:53;;;;;;;56.47;21.25;;;;;;;6.43;56.08;94676.16;4964324;28;20042;-83
2023/01/28 19:16:20;;;;;;;54.33;22.70;;;;;;;6.42;56.75;94677.19;4996264;28;20324;-83
2023/01/28 19:18:57;;;;;;;51.70;22.42;;;;;;;7.01;55.95;94685.69;4980453;28;20030;-83
2023/01/28 19:21:23;;;;;;;63.40;25.60;;;;;;;6.76;55.98;94685.03;4996201;28;20105;-84
2023/01/28 19:24:00;;;;;;;59.20;25.30;;;;;;;6.72;56.01;94680.53;4980643;28;20385;-84
2023/01/28 19:26:26;;;;;;;61.20;24.10;;;;;;;7.00;55.90;94681.50;4962847;28;20030;-83
2023/01/28 19:28:55;;;;;;;178.52;55.55;;;;;;;6.63;55.83;94688.75;4976709;28;20043;-83
2023/01/28 19:31:25;;;;;;;67.93;27.15;;;;;;;6.51;55.86;94690.59;4976051;28;20038;-83
2023/01/28 19:33:56;;;;;;;60.20;25.02;;;;;;;6.81;55.79;94691.34;4976774;28;20446;-83
2023/01/28 19:36:23;;;;;;;67.45;27.88;;;;;;;6.63;56.13;94693.94;4976652;28;20062;-83
2023/01/28 19:38:48;;;;;;;65.38;26.95;;;;;;;6.07;57.47;94693.69;4976664;28;20034;-83
2023/01/28 19:41:15;;;;;;;67.10;26.92;;;;;;;6.07;56.78;94689.28;4977775;28;20027;-83
2023/01/28 19:43:42;;;;;;;64.82;26.83;;;;;;;6.10;56.53;94695.84;4977792;28;20031;-86
2023/01/28 19:46:08;;;;;;;57.80;24.73;;;;;;;6.49;55.70;94701.25;4976783;28;20058;-86